Allenhurst, NJ

5:46 AM EDT on September 21, 2019 (GMT -0400)
West Deal | | Change Station
Active Advisory: Coastal Hazard Statement Active Notice: Coastal Hazard Statement

Elev 62 ft 40.25 °N, 74.02 °W | Updated 1 minute ago

Clear
Clear
57.8 °F
Feels Like 57.8 °F
N
4
Wind Variable Wind from WSW
Gusts 6.0 mph

Today
High -- | Low -- °F
--% Chance of Precip.
Yesterday
High -- | Low -- °F
Precip. -- in
Pressure 30.23 in
Visibility 10.0 miles
Clouds Clear
Dew Point 55 °F
Humidity 89%
Rainfall 0.00 in
Snow Depth Not available.
6:42 AM 6:55 PM
Waning Gibbous, 57% visible
METAR KBLM 210856Z AUTO 25005KT 10SM CLR 13/12 A3023 RMK AO2 SLP236 T01330117 51001
Pressure 30.23 in
Visibility 10.0 miles
Clouds Clear
Dew Point 55 °F
Humidity 89%
Rainfall 0.00 in
Snow Depth Not available.
6:42 AM 6:55 PM
Waning Gibbous, 57% visible
METAR KBLM 210856Z AUTO 25005KT 10SM CLR 13/12 A3023 RMK AO2 SLP236 T01330117 51001

Get Your Daily Forecast Email!

Thanks for signing up!

Be on the lookout for a verification email in your inbox.

You'll start receiving severe weather alerts in your inbox..

×

10-Day Weather Forecast

Almanac

Astronomy

Sep. 21, 2019 Rise Set
Actual Time
Civil Twilight
Nautical Twilight
Astronomical Twilight
Moon
Length of Visible Light
Length of Day
Tomorrow will be .
, % of the Moon is Illuminated

Today's Extremes

State Highs State Lows

Community

WunderPhotos

Category 6

Welcome to Category 6. This is the collective home for Weather Underground's featured writeups by Dr. Jeff Masters (right), Bob Henson (left), Chris Burt, and other regular contributors.

Nearby

Air Quality

  Air Quality AQ Index Pollutant
Not available.

Snow Depth

Station Depth Elevation

Earthquake Activity

City Distance Mag. Time & Date
Minimum magnitude displayed is 2.5.

Coastal Water Temperatures

Place Temperature

Stations

Nearby Weather Stations

Station Location Temp. Windchill Dew Point Humidity Wind Precip. Elev Updated Type
                   

Watches & Warnings

Coastal Hazard Statement
Issued: 3:52 AM EDT Sep. 21, 2019 – National Weather Service

... High rip current risk remains in effect through this
evening...

* locations... the beaches of Delaware and New Jersey.

* Timing... through this evening.

* Surf zone impacts... very strong rip currents will be dangerous
to anyone who enters the surf.

* Outlook... there is a moderate risk for the development of
dangerous rip currents on Sunday.

Precautionary/preparedness actions...

Stay out of the surf. If you are ever caught in a rip current,
relax and float. Do not swim against the current. If possible,
swim in a direction following the shoreline. If unable to escape,
face the shore and call or wave for help.



Iovino